createdAt,value
2023-05-22T00:03:52.904Z,16.40
2023-05-22T00:08:54.605Z,16.30
2023-05-22T00:13:56.321Z,16.30
2023-05-22T00:18:58.043Z,16.20
2023-05-22T00:23:59.879Z,16.30
2023-05-22T00:29:01.772Z,16.20
2023-05-22T00:34:03.595Z,16.10
2023-05-22T00:39:05.488Z,16.10
2023-05-22T00:44:08.064Z,16.10
2023-05-22T00:49:09.873Z,16.10
2023-05-22T00:54:12.418Z,16.00
2023-05-22T00:59:14.298Z,16.00
2023-05-22T01:04:18.411Z,16.00
2023-05-22T01:09:20.324Z,15.90
2023-05-22T01:14:45.314Z,15.90
2023-05-22T01:20:09.756Z,15.90
2023-05-22T01:25:26.491Z,15.90
2023-05-22T01:31:03.772Z,15.90
2023-05-22T01:36:07.804Z,16.00
2023-05-22T01:41:09.789Z,15.90
2023-05-22T01:46:11.628Z,15.80
2023-05-22T01:51:13.245Z,15.80
2023-05-22T01:56:16.662Z,15.90
2023-05-22T02:01:19.537Z,15.80
2023-05-22T02:06:21.278Z,15.70
2023-05-22T02:11:26.833Z,15.80
2023-05-22T02:16:30.269Z,15.80
2023-05-22T02:21:35.388Z,15.80
2023-05-22T02:26:37.686Z,15.70
2023-05-22T02:31:39.499Z,15.60
2023-05-22T02:42:45.033Z,15.40
2023-05-22T02:58:12.639Z,15.40
2023-05-22T03:03:14.496Z,15.40
2023-05-22T03:08:18.192Z,15.30
2023-05-22T03:13:19.949Z,15.10
2023-05-22T03:18:21.870Z,15.20
2023-05-22T03:23:25.145Z,15.20
2023-05-22T03:28:27.827Z,15.10
2023-05-22T03:33:29.613Z,14.90
2023-05-22T03:38:32.421Z,15.00
2023-05-22T03:43:35.037Z,15.00
2023-05-22T03:48:38.277Z,14.90
2023-05-22T03:53:39.886Z,14.80
2023-05-22T03:58:42.584Z,14.90
2023-05-22T04:03:46.821Z,14.80
2023-05-22T04:08:48.752Z,14.80
2023-05-22T04:13:51.442Z,14.80
2023-05-22T04:18:54.164Z,14.80
2023-05-22T04:23:56.928Z,14.80
2023-05-22T04:28:59.682Z,14.90
2023-05-22T04:34:01.651Z,15.00
2023-05-22T04:39:04.788Z,15.00
2023-05-22T04:44:07.852Z,15.10
2023-05-22T04:49:09.621Z,15.20
2023-05-22T04:54:11.296Z,15.20
2023-05-22T04:59:16.244Z,15.20
2023-05-22T05:04:18.092Z,15.30
2023-05-22T05:09:21.002Z,15.40
2023-05-22T05:14:23.963Z,15.40
2023-05-22T05:19:26.195Z,15.50
2023-05-22T05:24:35.272Z,15.60
2023-05-22T05:29:37.158Z,15.80
2023-05-22T05:34:38.945Z,15.80
2023-05-22T05:39:46.550Z,16.00
2023-05-22T05:44:48.403Z,16.00
2023-05-22T05:49:50.213Z,16.20
2023-05-22T05:54:54.053Z,16.30
2023-05-22T05:59:57.252Z,16.30
2023-05-22T06:04:58.997Z,16.30
2023-05-22T06:10:02.293Z,16.40
2023-05-22T06:15:05.498Z,16.50
2023-05-22T06:20:08.277Z,16.60
2023-05-22T06:25:11.042Z,16.60
2023-05-22T06:30:14.219Z,16.70
2023-05-22T06:35:21.031Z,16.90
2023-05-22T06:40:23.763Z,16.80
2023-05-22T06:45:26.523Z,16.90
2023-05-22T06:50:28.341Z,17.00
2023-05-22T06:55:35.101Z,17.10
2023-05-22T07:00:41.118Z,17.10
2023-05-22T07:05:44.112Z,17.20
2023-05-22T07:10:46.914Z,17.30
2023-05-22T07:15:51.151Z,17.40
2023-05-22T07:20:53.404Z,17.10
2023-05-22T07:25:56.476Z,17.30
2023-05-22T07:30:59.483Z,17.20
2023-05-22T07:36:02.260Z,17.30
2023-05-22T07:41:05.530Z,17.30
2023-05-22T07:46:10.640Z,17.40
2023-05-22T07:51:13.908Z,17.40
2023-05-22T07:56:17.873Z,17.50
2023-05-22T08:01:20.532Z,17.50
2023-05-22T08:06:23.809Z,17.70
2023-05-22T08:11:26.390Z,17.70
2023-05-22T08:16:30.976Z,17.80
2023-05-22T08:21:35.800Z,17.90
2023-05-22T08:26:38.805Z,18.10
2023-05-22T08:31:41.688Z,18.10
2023-05-22T08:36:48.350Z,18.10
2023-05-22T08:41:50.383Z,18.40
2023-05-22T08:47:00.974Z,18.40
2023-05-22T08:52:11.047Z,18.60
2023-05-22T08:57:12.778Z,18.60
2023-05-22T09:02:16.447Z,18.90
2023-05-22T09:07:18.504Z,19.10
2023-05-22T09:12:20.200Z,19.20
2023-05-22T09:17:21.887Z,19.10
2023-05-22T09:22:24.496Z,19.50
2023-05-22T09:27:26.194Z,19.70
2023-05-22T09:32:31.496Z,19.90
2023-05-22T09:37:34.206Z,20.00
2023-05-22T09:42:36.121Z,20.30
2023-05-22T09:47:38.609Z,20.40
2023-05-22T09:52:41.103Z,20.50
2023-05-22T09:57:48.395Z,20.90
2023-05-22T10:02:53.688Z,20.40
2023-05-22T10:07:58.781Z,20.60
2023-05-22T10:13:02.151Z,20.50
2023-05-22T10:18:04.209Z,20.70
2023-05-22T10:23:05.922Z,20.60
2023-05-22T10:28:07.849Z,20.80
2023-05-22T10:33:18.556Z,20.50
2023-05-22T10:38:26.485Z,20.50
2023-05-22T10:43:30.224Z,20.40
2023-05-22T10:48:45.338Z,20.70
2023-05-22T10:53:53.098Z,20.80
2023-05-22T10:58:59.132Z,20.50
2023-05-22T11:04:01.687Z,20.80
2023-05-22T11:09:19.789Z,20.80
2023-05-22T11:14:41.794Z,21.00
2023-05-22T11:19:43.581Z,20.50
2023-05-22T11:24:46.302Z,20.30
2023-05-22T11:29:48.406Z,20.30
2023-05-22T11:34:50.606Z,20.70
2023-05-22T11:39:58.813Z,20.80
2023-05-22T11:45:00.720Z,20.70
2023-05-22T11:50:02.975Z,20.90
2023-05-22T11:55:05.550Z,20.70
2023-05-22T12:00:10.686Z,21.00
2023-05-22T12:05:12.545Z,20.80
2023-05-22T12:10:14.523Z,21.10
2023-05-22T12:15:19.028Z,20.90
2023-05-22T12:20:20.816Z,20.90
2023-05-22T12:25:24.774Z,21.10
2023-05-22T12:30:26.664Z,21.10
2023-05-22T12:35:28.876Z,21.10
2023-05-22T12:40:30.493Z,21.50
2023-05-22T12:45:32.303Z,21.10
2023-05-22T12:50:34.332Z,21.20
2023-05-22T12:55:36.164Z,21.50
2023-05-22T13:00:38.201Z,21.30
2023-05-22T13:05:40.299Z,21.50
2023-05-22T13:10:42.187Z,21.60
2023-05-22T13:15:43.865Z,21.90
2023-05-22T13:20:45.918Z,22.10
2023-05-22T13:25:47.664Z,21.90
2023-05-22T13:30:49.331Z,22.10
2023-05-22T13:35:51.202Z,22.20
2023-05-22T13:40:52.892Z,22.40
2023-05-22T13:45:54.667Z,22.40
2023-05-22T13:50:56.325Z,22.30
2023-05-22T13:55:57.964Z,22.40
2023-05-22T14:00:59.635Z,22.50
2023-05-22T14:06:01.381Z,22.60
2023-05-22T14:11:03.159Z,22.70
2023-05-22T14:16:04.849Z,22.80
2023-05-22T14:21:06.509Z,22.90
2023-05-22T14:26:08.168Z,22.90
2023-05-22T14:31:09.973Z,22.80
2023-05-22T14:36:11.664Z,22.80
2023-05-22T14:41:13.633Z,22.80
2023-05-22T14:46:15.326Z,22.80
2023-05-22T14:51:20.599Z,22.70
2023-05-22T14:56:23.050Z,22.80
2023-05-22T15:01:26.927Z,22.80
2023-05-22T15:06:35.659Z,22.90
2023-05-22T15:11:45.559Z,22.60
2023-05-22T15:16:47.593Z,22.60
2023-05-22T15:21:53.750Z,22.50
2023-05-22T15:26:59.431Z,22.60
2023-05-22T15:32:03.405Z,22.60
2023-05-22T15:37:05.246Z,22.60
2023-05-22T15:42:07.248Z,22.80
2023-05-22T15:47:08.930Z,22.50
2023-05-22T15:52:10.687Z,22.50
2023-05-22T15:57:12.326Z,22.40
2023-05-22T16:02:14.685Z,22.40
2023-05-22T16:07:21.094Z,22.30
2023-05-22T16:12:22.852Z,22.40
2023-05-22T16:17:26.641Z,22.20
2023-05-22T16:22:44.122Z,22.00
2023-05-22T16:27:50.090Z,21.90
2023-05-22T16:32:52.847Z,21.70
2023-05-22T16:37:55.593Z,21.70
2023-05-22T16:42:57.332Z,21.80
2023-05-22T16:48:00.049Z,21.90
2023-05-22T16:53:01.810Z,21.80
2023-05-22T16:58:32.430Z,21.60
2023-05-22T17:03:34.611Z,21.50
2023-05-22T17:08:36.501Z,21.40
2023-05-22T17:13:38.249Z,21.40
2023-05-22T17:18:40.509Z,21.40
2023-05-22T17:23:42.130Z,21.30
2023-05-22T17:28:43.786Z,21.10
2023-05-22T17:33:46.614Z,21.10
2023-05-22T17:38:49.384Z,21.10
2023-05-22T17:44:00.850Z,21.10
2023-05-22T17:49:02.702Z,21.00
2023-05-22T17:54:06.002Z,21.00
2023-05-22T17:59:08.033Z,20.90
2023-05-22T18:04:11.316Z,20.90
2023-05-22T18:09:16.278Z,20.80
2023-05-22T18:14:24.647Z,20.70
2023-05-22T18:19:46.789Z,20.70
2023-05-22T18:24:48.515Z,20.60
2023-05-22T18:29:51.746Z,20.60
2023-05-22T18:34:53.599Z,20.50
2023-05-22T18:39:59.360Z,20.50
2023-05-22T18:45:24.008Z,20.40
2023-05-22T18:50:30.563Z,20.40
2023-05-22T18:55:33.277Z,20.30
2023-05-22T19:00:39.137Z,20.30
2023-05-22T19:05:43.028Z,20.30
2023-05-22T19:10:52.371Z,20.20
2023-05-22T19:15:54.257Z,20.10
2023-05-22T19:20:57.035Z,20.00
2023-05-22T19:25:59.279Z,20.00
2023-05-22T19:31:06.190Z,19.90
2023-05-22T19:36:09.937Z,19.80
2023-05-22T19:41:14.893Z,19.80
2023-05-22T19:46:16.672Z,19.70
2023-05-22T19:51:23.473Z,19.60
2023-05-22T19:56:25.179Z,19.60
2023-05-22T20:01:30.029Z,19.50
2023-05-22T20:06:33.505Z,19.40
2023-05-22T20:11:35.725Z,19.40
2023-05-22T20:16:38.539Z,19.30
2023-05-22T20:21:41.346Z,19.20
2023-05-22T20:26:46.016Z,19.10
2023-05-22T20:31:54.899Z,19.00
2023-05-22T20:36:58.414Z,19.00
2023-05-22T20:42:02.934Z,18.90
2023-05-22T20:47:05.418Z,19.00
2023-05-22T20:52:07.388Z,19.00
2023-05-22T20:57:09.101Z,19.00
2023-05-22T21:02:10.756Z,19.00
2023-05-22T21:07:13.598Z,19.00
2023-05-22T21:12:16.283Z,19.00
2023-05-22T21:17:18.977Z,19.00
2023-05-22T21:22:20.662Z,19.00
2023-05-22T21:27:24.373Z,19.00
2023-05-22T21:32:27.092Z,19.00
2023-05-22T21:37:28.878Z,18.90
2023-05-22T21:42:41.837Z,18.80
2023-05-22T21:47:49.954Z,18.70
2023-05-22T21:52:51.729Z,18.70
2023-05-22T21:57:53.397Z,18.60
2023-05-22T22:02:57.394Z,18.50
2023-05-22T22:07:59.279Z,18.40
2023-05-22T22:13:01.367Z,18.40
2023-05-22T22:18:05.040Z,18.20
2023-05-22T22:23:07.896Z,18.10
2023-05-22T22:28:11.300Z,18.00
2023-05-22T22:33:13.777Z,18.00
2023-05-22T22:38:15.553Z,18.00
2023-05-22T22:43:18.766Z,17.90
2023-05-22T22:48:22.431Z,17.90
2023-05-22T22:53:26.218Z,17.80
2023-05-22T22:58:28.882Z,17.70
2023-05-22T23:03:30.833Z,17.60
2023-05-22T23:08:32.557Z,17.40
2023-05-22T23:13:34.263Z,17.30
2023-05-22T23:18:36.006Z,17.20
2023-05-22T23:23:37.739Z,17.10
2023-05-22T23:28:39.421Z,17.10
2023-05-22T23:33:42.159Z,17.00
2023-05-22T23:38:43.803Z,16.90
2023-05-22T23:43:47.514Z,16.80
2023-05-22T23:48:50.311Z,16.70
2023-05-22T23:53:52.069Z,16.70
2023-05-22T23:58:53.774Z,16.60
